Time;durP1;ratioP1;P1;durP2;ratioP2;P2;SDS_P1;SDS_P2;PMS_P1;PMS_P2;Temp;Humidity;BMP_temperature;BMP_pressure;BME280_temperature;BME280_humidity;BME280_pressure;Samples;Min_cycle;Max_cycle;Signal;HPM_P1;HPM_P2
2022/09/17 00:02:24;;;;;;;2.90;1.15;;;10.00;99.90;;;;;;4994376;28;20026;-45
2022/09/17 00:04:50;;;;;;;0.77;0.77;;;9.90;99.90;;;;;;4994275;28;20022;-49
2022/09/17 00:07:16;;;;;;;4.63;1.77;;;10.00;99.90;;;;;;4993689;28;20057;-44
2022/09/17 00:09:42;;;;;;;0.77;0.70;;;10.00;99.90;;;;;;4993655;28;20080;-49
2022/09/17 00:12:07;;;;;;;6.10;0.90;;;10.00;99.90;;;;;;4993788;28;20026;-48
2022/09/17 00:14:33;;;;;;;1.35;0.77;;;10.00;99.90;;;;;;4994230;28;20089;-47
2022/09/17 00:16:58;;;;;;;2.15;0.93;;;10.00;99.90;;;;;;4994239;28;20475;-47
2022/09/17 00:19:24;;;;;;;1.05;0.80;;;9.90;99.90;;;;;;4992584;28;20062;-47
2022/09/17 00:21:50;;;;;;;2.42;0.80;;;9.90;99.90;;;;;;4993581;28;20042;-48
2022/09/17 00:24:16;;;;;;;5.03;1.08;;;9.90;99.90;;;;;;4993381;28;20069;-48
2022/09/17 00:26:42;;;;;;;1.08;0.90;;;10.00;99.90;;;;;;4993565;28;20042;-49
2022/09/17 00:29:08;;;;;;;4.35;0.90;;;10.00;99.90;;;;;;4993332;28;20018;-45
2022/09/17 00:31:34;;;;;;;3.65;1.17;;;10.00;99.90;;;;;;4993506;28;20058;-45
2022/09/17 00:34:02;;;;;;;5.40;1.00;;;10.00;99.90;;;;;;4993101;28;20026;-48
2022/09/17 00:36:28;;;;;;;3.78;1.08;;;10.00;99.90;;;;;;4993279;28;20031;-48
2022/09/17 00:38:56;;;;;;;3.97;1.23;;;10.00;99.90;;;;;;4993371;28;20030;-45
2022/09/17 00:41:23;;;;;;;4.90;1.00;;;10.00;99.90;;;;;;4993097;28;20494;-44
2022/09/17 00:43:52;;;;;;;6.05;1.52;;;9.90;99.90;;;;;;4993308;28;20026;-46
2022/09/17 00:46:36;;;;;;;4.10;1.27;;;9.90;99.90;;;;;;4992625;28;20375;-47
2022/09/17 00:49:11;;;;;;;3.53;0.75;;;9.90;99.90;;;;;;4993021;28;20080;-44
2022/09/17 00:51:41;;;;;;;3.40;0.90;;;9.90;99.90;;;;;;4992961;28;20034;-45
2022/09/17 00:54:09;;;;;;;1.50;1.00;;;9.90;99.90;;;;;;4992401;28;20113;-44
2022/09/17 00:56:37;;;;;;;1.85;1.00;;;9.90;99.90;;;;;;4992799;28;20084;-46
2022/09/17 00:59:03;;;;;;;2.90;1.00;;;9.90;99.90;;;;;;4992824;28;20022;-45
2022/09/17 01:01:29;;;;;;;1.85;1.00;;;9.90;99.90;;;;;;4992719;28;20516;-45
2022/09/17 01:03:55;;;;;;;6.45;1.20;;;9.90;99.90;;;;;;4992467;28;20046;-45
2022/09/17 01:06:23;;;;;;;2.35;1.05;;;9.90;99.90;;;;;;4992497;28;20022;-45
2022/09/17 01:09:20;;;;;;;9.35;1.67;;;9.90;99.90;;;;;;4992555;28;20117;-45
2022/09/17 01:11:54;;;;;;;4.68;1.25;;;10.00;99.90;;;;;;4985481;28;20049;-51
2022/09/17 01:14:42;;;;;;;2.53;1.83;;;10.00;99.90;;;;;;4974999;28;20077;-46
2022/09/17 01:17:32;;;;;;;6.07;1.83;;;10.00;99.90;;;;;;4992036;28;20518;-45
2022/09/17 01:20:32;;;;;;;4.45;1.27;;;9.90;99.90;;;;;;4992486;28;20033;-44
2022/09/17 01:23:19;;;;;;;1.85;1.00;;;9.90;99.90;;;;;;4992291;28;20026;-45
2022/09/17 01:25:56;;;;;;;2.72;1.13;;;10.00;99.90;;;;;;4992133;28;20042;-48
2022/09/17 01:28:43;;;;;;;3.28;1.10;;;9.90;99.90;;;;;;4992319;28;20026;-46
2022/09/17 01:31:29;;;;;;;9.90;1.15;;;9.90;99.90;;;;;;4992318;28;20029;-45
2022/09/17 01:34:06;;;;;;;;;;;10.00;99.90;;;;;;4992467;28;20084;-45
2022/09/17 01:37:07;;;;;;;2.53;1.10;;;10.00;99.90;;;;;;4992130;28;19909;-48
2022/09/17 01:39:47;;;;;;;2.20;1.08;;;9.90;99.90;;;;;;4977399;28;20396;-45
2022/09/17 01:42:20;;;;;;;2.20;1.27;;;9.80;99.90;;;;;;4991922;28;20036;-46
2022/09/17 01:45:05;;;;;;;2.80;1.63;;;9.80;99.90;;;;;;4992151;28;20029;-46
2022/09/17 01:47:36;;;;;;;4.43;1.42;;;9.70;99.90;;;;;;4991978;28;20030;-46
2022/09/17 01:50:16;;;;;;;7.03;2.00;;;9.70;99.90;;;;;;4992132;28;20104;-45
2022/09/17 01:52:44;;;;;;;6.18;1.50;;;9.70;99.90;;;;;;4991738;28;20027;-48
2022/09/17 01:55:15;;;;;;;5.22;1.33;;;9.70;99.90;;;;;;4992294;28;20030;-47
2022/09/17 01:57:56;;;;;;;5.05;1.20;;;9.70;99.90;;;;;;4992311;28;20102;-50
2022/09/17 02:00:23;;;;;;;2.67;1.20;;;9.70;99.90;;;;;;4992507;28;20019;-46
2022/09/17 02:02:54;;;;;;;7.32;1.30;;;9.70;99.90;;;;;;4991666;28;20154;-45
2022/09/17 02:05:28;;;;;;;3.63;1.10;;;9.70;99.90;;;;;;4992091;28;20035;-47
2022/09/17 02:07:58;;;;;;;2.28;1.33;;;9.70;99.90;;;;;;4978589;28;20085;-46
2022/09/17 02:10:33;;;;;;;5.65;1.25;;;9.70;99.90;;;;;;4995943;28;20134;-46
2022/09/17 02:13:09;;;;;;;10.23;1.60;;;9.70;99.90;;;;;;4995799;28;20105;-45
2022/09/17 02:15:40;;;;;;;4.32;1.20;;;9.80;99.90;;;;;;4978324;28;20034;-46
2022/09/17 02:18:32;;;;;;;2.72;1.67;;;9.80;99.90;;;;;;4995757;28;20058;-46
2022/09/17 02:21:08;;;;;;;8.80;1.65;;;9.80;99.90;;;;;;4982621;28;20509;-46
2022/09/17 02:23:43;;;;;;;4.30;1.50;;;9.80;99.90;;;;;;4978044;28;20034;-46
2022/09/17 02:26:14;;;;;;;8.07;1.40;;;9.80;99.90;;;;;;4995590;28;20046;-45
2022/09/17 02:29:10;;;;;;;4.60;1.35;;;9.90;99.90;;;;;;4995653;28;20100;-45
2022/09/17 02:31:36;;;;;;;3.08;1.30;;;9.90;99.90;;;;;;4994035;28;20088;-48
2022/09/17 02:34:03;;;;;;;3.42;1.52;;;10.00;99.90;;;;;;4995287;28;20030;-45
2022/09/17 02:36:30;;;;;;;3.25;1.83;;;10.00;99.90;;;;;;4995421;28;20054;-46
2022/09/17 02:39:00;;;;;;;2.10;1.30;;;10.00;99.90;;;;;;4995462;28;20093;-45
2022/09/17 02:41:39;;;;;;;7.70;1.85;;;10.10;99.90;;;;;;4995506;28;20026;-46
2022/09/17 02:44:20;;;;;;;4.43;1.63;;;10.10;99.90;;;;;;4995118;28;20034;-49
2022/09/17 02:47:14;;;;;;;6.65;1.48;;;10.20;99.90;;;;;;4995146;28;20113;-47
2022/09/17 02:50:01;;;;;;;3.38;2.05;;;10.20;99.90;;;;;;4995235;28;20162;-47
2022/09/17 02:52:46;;;;;;;4.82;1.63;;;10.20;99.90;;;;;;4995026;28;20038;-47
2022/09/17 02:55:44;;;;;;;6.30;1.88;;;10.30;99.90;;;;;;4995190;28;20022;-51
2022/09/17 02:58:40;;;;;;;7.93;1.48;;;10.40;99.90;;;;;;4960864;28;20058;-49
2022/09/17 03:01:18;;;;;;;4.93;1.98;;;10.40;99.90;;;;;;4994479;28;20509;-49
2022/09/17 03:03:46;;;;;;;2.95;1.42;;;10.40;99.90;;;;;;4977360;28;20121;-45
2022/09/17 03:06:12;;;;;;;9.90;2.00;;;10.40;99.90;;;;;;4995061;28;20445;-44
2022/09/17 03:08:41;;;;;;;6.43;1.98;;;10.50;99.90;;;;;;4994980;28;20049;-46
2022/09/17 03:11:09;;;;;;;10.82;1.85;;;10.50;99.90;;;;;;4995482;28;20482;-48
2022/09/17 03:13:35;;;;;;;4.90;1.67;;;10.60;99.90;;;;;;4994938;28;20529;-48
2022/09/17 03:16:02;;;;;;;9.82;2.15;;;10.50;99.90;;;;;;4994793;28;20065;-48
2022/09/17 03:18:28;;;;;;;4.88;1.70;;;10.50;99.90;;;;;;4994599;28;20046;-47
2022/09/17 03:20:53;;;;;;;10.70;1.90;;;10.60;99.90;;;;;;4977395;28;20493;-50
2022/09/17 03:23:18;;;;;;;2.92;1.63;;;10.50;99.90;;;;;;4994932;28;20022;-47
2022/09/17 03:25:45;;;;;;;3.70;2.10;;;10.60;99.90;;;;;;4994468;28;20042;-46
2022/09/17 03:28:11;;;;;;;9.75;2.22;;;10.60;99.90;;;;;;4994641;28;20030;-49
2022/09/17 03:30:36;;;;;;;7.40;2.85;;;10.70;99.90;;;;;;4994551;28;20037;-45
2022/09/17 03:33:02;;;;;;;3.60;2.00;;;10.70;99.90;;;;;;4994667;28;20437;-49
2022/09/17 03:35:27;;;;;;;8.48;1.95;;;10.70;99.90;;;;;;4994419;28;20027;-46
2022/09/17 03:37:53;;;;;;;6.20;1.77;;;10.70;99.90;;;;;;4994546;28;20054;-46
2022/09/17 03:40:18;;;;;;;2.92;1.60;;;10.70;99.90;;;;;;4994506;28;20030;-47
2022/09/17 03:42:44;;;;;;;8.50;1.95;;;10.70;99.90;;;;;;4994725;28;20509;-45
2022/09/17 03:45:10;;;;;;;5.97;1.80;;;10.60;99.90;;;;;;4977284;28;20552;-46
2022/09/17 03:47:36;;;;;;;15.07;3.42;;;10.60;99.90;;;;;;4994144;28;20512;-45
2022/09/17 03:50:03;;;;;;;4.72;1.60;;;10.60;99.90;;;;;;4994281;28;20034;-46
2022/09/17 03:52:28;;;;;;;10.45;2.00;;;10.60;99.90;;;;;;4993756;28;20173;-45
2022/09/17 03:54:54;;;;;;;8.18;2.30;;;10.60;99.90;;;;;;4994202;28;20507;-46
2022/09/17 03:57:20;;;;;;;4.75;1.60;;;10.60;99.90;;;;;;4994325;28;20027;-49
2022/09/17 03:59:45;;;;;;;6.80;1.92;;;10.60;99.90;;;;;;4994009;28;20026;-45
2022/09/17 04:02:11;;;;;;;4.72;1.52;;;10.60;99.90;;;;;;4993716;28;20030;-49
2022/09/17 04:04:36;;;;;;;6.18;1.90;;;10.70;99.90;;;;;;4976474;28;20430;-46
2022/09/17 04:07:02;;;;;;;3.25;1.20;;;10.80;99.90;;;;;;4993928;28;20300;-46
2022/09/17 04:09:28;;;;;;;8.88;1.88;;;10.70;99.90;;;;;;4993991;28;20073;-45
2022/09/17 04:11:53;;;;;;;6.28;2.20;;;10.70;99.90;;;;;;4994064;28;20672;-46
2022/09/17 04:14:18;;;;;;;5.93;2.03;;;10.70;99.90;;;;;;4994153;28;20073;-47
2022/09/17 04:16:44;;;;;;;5.20;1.70;;;10.80;99.90;;;;;;4993720;28;20030;-47
2022/09/17 04:19:09;;;;;;;4.32;1.63;;;10.70;99.90;;;;;;4993567;28;20026;-45
2022/09/17 04:21:35;;;;;;;5.43;1.90;;;10.70;99.90;;;;;;4993665;28;20046;-46
2022/09/17 04:24:01;;;;;;;3.08;1.70;;;10.70;99.90;;;;;;4993326;28;20030;-48
2022/09/17 04:26:26;;;;;;;6.35;2.03;;;10.70;99.90;;;;;;4993432;28;20096;-49
2022/09/17 04:28:51;;;;;;;8.68;2.08;;;10.70;99.90;;;;;;4992740;28;20109;-46
2022/09/17 04:31:17;;;;;;;4.05;1.50;;;10.70;99.90;;;;;;4993420;28;20030;-48
2022/09/17 04:33:42;;;;;;;14.75;3.35;;;10.60;99.90;;;;;;4993158;28;20033;-50
2022/09/17 04:36:08;;;;;;;4.70;1.65;;;10.70;99.90;;;;;;4993401;28;20030;-47
2022/09/17 04:38:33;;;;;;;3.10;1.63;;;10.60;99.90;;;;;;4993274;28;20044;-48
2022/09/17 04:40:59;;;;;;;4.13;1.67;;;10.60;99.90;;;;;;4993476;28;20514;-44
2022/09/17 04:43:25;;;;;;;6.68;1.63;;;10.60;99.90;;;;;;4992959;28;20458;-49
2022/09/17 04:45:50;;;;;;;5.53;1.38;;;10.60;99.90;;;;;;4993144;28;20038;-50
2022/09/17 04:48:16;;;;;;;6.07;1.60;;;10.60;99.90;;;;;;5014198;23;20403;-46
2022/09/17 04:50:42;;;;;;;4.65;1.85;;;10.60;99.90;;;;;;4993388;28;20105;-41
2022/09/17 04:53:08;;;;;;;2.20;1.85;;;10.60;99.90;;;;;;4993070;28;20106;-49
2022/09/17 04:55:34;;;;;;;3.40;1.40;;;10.60;99.90;;;;;;5008063;28;20032;-49
2022/09/17 04:57:59;;;;;;;7.65;2.03;;;10.70;99.90;;;;;;4993032;28;20059;-44
2022/09/17 05:00:25;;;;;;;2.65;2.15;;;10.60;99.90;;;;;;4992951;28;20648;-49
2022/09/17 05:02:54;;;;;;;11.60;3.13;;;10.60;99.90;;;;;;4992772;28;20105;-47
2022/09/17 05:05:20;;;;;;;6.93;1.98;;;10.60;99.90;;;;;;4992836;28;20076;-48
2022/09/17 05:07:45;;;;;;;8.07;1.73;;;10.60;99.90;;;;;;4992735;28;20026;-47
2022/09/17 05:10:14;;;;;;;5.32;1.60;;;10.50;99.90;;;;;;4992692;28;20026;-48
2022/09/17 05:12:39;;;;;;;6.75;2.15;;;10.60;99.90;;;;;;4992313;28;20030;-45
2022/09/17 05:15:05;;;;;;;8.27;2.20;;;10.50;99.90;;;;;;4992675;28;20101;-46
2022/09/17 05:17:31;;;;;;;2.90;1.40;;;10.50;99.90;;;;;;4992436;28;20041;-44
2022/09/17 05:19:56;;;;;;;4.47;1.88;;;10.50;99.90;;;;;;4992877;28;20023;-52
2022/09/17 05:22:22;;;;;;;4.15;2.17;;;10.60;99.90;;;;;;4992385;28;20031;-48
2022/09/17 05:24:47;;;;;;;5.10;2.58;;;10.50;99.90;;;;;;4992493;28;20402;-43
2022/09/17 05:27:13;;;;;;;4.40;2.20;;;10.60;99.90;;;;;;4992417;28;20521;-46
2022/09/17 05:29:39;;;;;;;13.48;3.30;;;10.70;99.90;;;;;;4992341;28;20049;-48
2022/09/17 05:32:05;;;;;;;6.05;2.17;;;10.60;99.90;;;;;;4992020;28;20058;-48
2022/09/17 05:34:31;;;;;;;4.32;1.73;;;10.60;99.90;;;;;;4992486;28;20545;-49
2022/09/17 05:36:57;;;;;;;8.65;2.05;;;10.70;99.90;;;;;;4992514;28;20029;-46
2022/09/17 05:39:24;;;;;;;12.30;2.90;;;10.60;99.90;;;;;;4992084;28;20026;-46
2022/09/17 05:41:53;;;;;;;5.70;1.60;;;10.60;99.90;;;;;;4992054;28;20050;-50
2022/09/17 05:44:19;;;;;;;6.63;1.80;;;10.60;99.90;;;;;;5007828;28;20471;-47
2022/09/17 05:46:45;;;;;;;3.70;1.80;;;10.70;99.90;;;;;;4992239;28;20038;-46
2022/09/17 05:49:12;;;;;;;6.72;1.75;;;10.70;99.90;;;;;;4992294;28;20034;-48
2022/09/17 05:51:37;;;;;;;4.75;2.08;;;10.70;99.90;;;;;;4992107;28;20081;-52
2022/09/17 05:54:03;;;;;;;10.85;2.80;;;10.80;99.90;;;;;;4991963;28;20034;-46
2022/09/17 05:56:29;;;;;;;4.50;2.40;;;10.90;99.90;;;;;;4992119;28;20437;-49
2022/09/17 05:58:56;;;;;;;3.47;1.83;;;10.90;99.90;;;;;;4992054;28;20030;-44
2022/09/17 06:01:22;;;;;;;4.03;2.42;;;11.00;99.90;;;;;;4992147;28;20034;-50
2022/09/17 06:03:47;;;;;;;6.78;2.05;;;10.90;99.90;;;;;;4991894;28;20617;-48
2022/09/17 06:06:13;;;;;;;5.35;2.00;;;11.00;99.90;;;;;;4992345;28;20113;-47
2022/09/17 06:08:38;;;;;;;7.47;2.42;;;10.90;99.90;;;;;;4991926;28;20117;-47
2022/09/17 06:11:05;;;;;;;6.80;3.03;;;11.00;99.90;;;;;;4991983;28;20030;-48
2022/09/17 06:13:32;;;;;;;6.18;2.20;;;11.00;99.90;;;;;;4991699;28;21093;-47
2022/09/17 06:15:58;;;;;;;3.65;2.90;;;11.10;99.90;;;;;;4991879;28;20076;-49
2022/09/17 06:18:23;;;;;;;4.45;1.80;;;11.10;99.90;;;;;;5006888;28;20113;-49
2022/09/17 06:20:57;;;;;;;4.72;1.95;;;11.20;99.90;;;;;;4991976;28;20126;-48
2022/09/17 06:23:23;;;;;;;7.18;2.00;;;11.30;99.90;;;;;;4991756;28;20023;-47
2022/09/17 06:25:56;;;;;;;4.95;1.73;;;11.40;99.90;;;;;;4991781;28;20019;-47
2022/09/17 06:28:22;;;;;;;8.77;2.10;;;11.50;99.90;;;;;;4992007;28;20114;-49
2022/09/17 06:30:47;;;;;;;5.93;2.58;;;11.60;99.90;;;;;;4991717;28;20058;-47
2022/09/17 06:33:14;;;;;;;6.72;2.22;;;11.80;99.90;;;;;;4991537;28;20023;-49
2022/09/17 06:35:39;;;;;;;8.23;2.05;;;12.20;99.90;;;;;;4992059;28;20030;-41
2022/09/17 06:38:05;;;;;;;8.73;2.58;;;12.80;99.90;;;;;;4991608;28;20497;-47
2022/09/17 06:40:30;;;;;;;5.50;1.73;;;13.60;99.90;;;;;;4991586;28;20030;-49
2022/09/17 06:43:00;;;;;;;9.73;1.48;;;14.10;99.90;;;;;;4991520;28;20018;-44
2022/09/17 06:45:26;;;;;;;6.07;1.98;;;14.40;99.90;;;;;;4990650;28;20546;-41
2022/09/17 06:47:52;;;;;;;3.20;1.42;;;14.10;99.90;;;;;;4991408;28;20050;-50
2022/09/17 06:50:17;;;;;;;13.05;1.67;;;13.80;99.90;;;;;;4994464;28;20440;-50
2022/09/17 06:52:50;;;;;;;10.25;2.03;;;13.50;99.90;;;;;;5008259;28;20045;-51
2022/09/17 06:55:16;;;;;;;3.92;1.77;;;13.30;99.90;;;;;;4995558;28;20026;-49
2022/09/17 06:57:42;;;;;;;9.27;2.13;;;13.00;99.90;;;;;;4993585;28;20038;-51
2022/09/17 07:00:09;;;;;;;5.47;1.67;;;13.20;99.90;;;;;;4994507;28;20053;-51
2022/09/17 07:02:35;;;;;;;10.77;1.83;;;13.60;99.90;;;;;;4994471;28;20030;-52
2022/09/17 07:05:01;;;;;;;2.15;1.75;;;14.40;99.90;;;;;;4994955;28;20442;-49
2022/09/17 07:07:27;;;;;;;7.78;1.42;;;15.10;99.90;;;;;;4994654;28;20030;-46
2022/09/17 07:09:52;;;;;;;5.85;1.88;;;15.20;99.90;;;;;;4994015;28;20034;-52
2022/09/17 07:12:18;;;;;;;4.38;1.73;;;14.90;99.90;;;;;;4994027;28;20035;-49
2022/09/17 07:14:44;;;;;;;9.98;1.92;;;14.80;99.90;;;;;;5010265;28;20187;-46
2022/09/17 07:17:10;;;;;;;8.32;1.83;;;14.40;99.90;;;;;;4995080;28;20025;-46
2022/09/17 07:19:36;;;;;;;20.35;3.22;;;14.30;99.90;;;;;;5009790;28;20026;-51
2022/09/17 07:22:01;;;;;;;7.47;1.55;;;14.20;99.90;;;;;;4994260;28;20045;-48
2022/09/17 07:24:27;;;;;;;5.60;1.65;;;14.10;99.90;;;;;;4994852;28;20034;-53
2022/09/17 07:26:52;;;;;;;11.02;2.42;;;13.90;99.90;;;;;;4994749;28;20041;-52
2022/09/17 07:29:19;;;;;;;11.55;2.42;;;13.70;99.90;;;;;;4994529;28;20166;-50
2022/09/17 07:31:44;;;;;;;4.50;1.63;;;13.40;99.90;;;;;;5009585;28;20023;-47
2022/09/17 07:34:10;;;;;;;4.85;2.30;;;13.30;99.90;;;;;;4994475;28;20030;-45
2022/09/17 07:36:35;;;;;;;8.30;2.40;;;13.30;99.90;;;;;;4994845;28;20061;-52
2022/09/17 07:39:02;;;;;;;9.38;2.03;;;13.50;99.90;;;;;;4994199;28;20402;-46
2022/09/17 07:41:27;;;;;;;10.40;1.90;;;13.60;99.90;;;;;;4994474;28;20097;-48
2022/09/17 07:43:54;;;;;;;13.82;1.90;;;14.10;99.90;;;;;;4994161;28;20452;-53
2022/09/17 07:46:20;;;;;;;10.23;1.95;;;14.80;99.90;;;;;;5007793;28;20077;-53
2022/09/17 07:48:47;;;;;;;3.85;1.58;;;15.70;99.90;;;;;;4992584;28;20042;-51
2022/09/17 07:51:23;;;;;;;8.82;1.77;;;16.20;99.90;;;;;;4992464;28;20150;-50
2022/09/17 07:53:57;;;;;;;7.63;1.88;;;16.60;99.90;;;;;;4993710;28;20015;-45
2022/09/17 07:56:25;;;;;;;6.30;1.98;;;17.30;99.90;;;;;;4994207;28;20018;-50
2022/09/17 07:58:51;;;;;;;12.00;1.77;;;17.40;99.90;;;;;;4993726;28;20107;-47
2022/09/17 08:01:19;;;;;;;7.72;1.70;;;17.60;99.90;;;;;;4994041;28;20117;-50
2022/09/17 08:03:50;;;;;;;6.78;1.83;;;17.10;99.90;;;;;;4992748;28;20551;-51
2022/09/17 08:06:18;;;;;;;9.95;2.10;;;17.00;99.90;;;;;;5009100;28;20084;-49
2022/09/17 08:08:44;;;;;;;9.25;1.85;;;16.60;99.90;;;;;;4993882;28;20029;-50
2022/09/17 08:11:12;;;;;;;10.85;2.15;;;16.10;99.90;;;;;;5009129;28;20497;-45
2022/09/17 08:13:39;;;;;;;7.03;1.77;;;15.50;99.90;;;;;;4993843;28;20417;-55
2022/09/17 08:16:14;;;;;;;12.13;2.38;;;15.10;99.90;;;;;;5009034;28;20026;-50
2022/09/17 08:18:41;;;;;;;7.20;1.88;;;14.80;99.90;;;;;;4993773;28;20026;-53
2022/09/17 08:21:09;;;;;;;8.95;1.83;;;14.70;99.90;;;;;;4993598;28;20058;-52
2022/09/17 08:23:36;;;;;;;5.28;1.80;;;14.80;99.90;;;;;;4992656;28;20109;-50
2022/09/17 08:26:03;;;;;;;5.00;1.75;;;14.90;99.90;;;;;;4992846;28;20022;-53
2022/09/17 08:28:30;;;;;;;5.07;2.05;;;14.90;99.90;;;;;;4992979;28;20038;-49
2022/09/17 08:31:01;;;;;;;7.97;1.73;;;14.90;99.90;;;;;;4993477;28;20113;-56
2022/09/17 08:33:31;;;;;;;8.68;1.83;;;14.70;99.90;;;;;;4992490;28;20023;-51
2022/09/17 08:35:59;;;;;;;7.80;2.25;;;14.30;99.90;;;;;;4992835;28;20019;-47
2022/09/17 08:38:26;;;;;;;8.75;2.60;;;14.10;99.90;;;;;;4982300;28;20117;-54
2022/09/17 08:41:01;;;;;;;8.80;1.95;;;14.10;99.90;;;;;;4993205;28;20057;-55
2022/09/17 08:43:30;;;;;;;10.10;2.72;;;14.10;99.90;;;;;;5005875;28;20117;-56
2022/09/17 08:45:57;;;;;;;4.47;1.45;;;14.30;99.90;;;;;;4992912;28;20019;-52
2022/09/17 08:48:27;;;;;;;10.45;2.67;;;15.00;99.90;;;;;;4992909;28;20041;-54
2022/09/17 08:50:52;;;;;;;9.45;1.75;;;15.30;99.90;;;;;;4993054;28;20034;-53
2022/09/17 08:53:39;;;;;;;4.93;1.30;;;15.80;99.90;;;;;;4992626;28;20038;-53
2022/09/17 08:56:12;;;;;;;10.32;2.55;;;15.70;99.90;;;;;;4983572;28;20413;-53
2022/09/17 08:58:59;;;;;;;4.57;1.92;;;15.60;99.90;;;;;;4992903;28;20029;-54
2022/09/17 09:01:39;;;;;;;6.78;2.42;;;15.90;99.90;;;;;;4980009;28;20130;-49
2022/09/17 09:04:05;;;;;;;6.05;1.73;;;16.60;99.90;;;;;;4992191;28;20058;-51
2022/09/17 09:06:36;;;;;;;9.77;1.80;;;17.30;99.90;;;;;;4992572;28;20061;-54
2022/09/17 09:09:05;;;;;;;4.05;1.73;;;18.20;99.20;;;;;;4992707;28;20085;-49
2022/09/17 09:11:31;;;;;;;3.90;1.30;;;18.60;98.30;;;;;;4991837;28;20038;-57
2022/09/17 09:14:10;;;;;;;7.85;1.42;;;18.30;98.40;;;;;;5007766;28;20035;-53
2022/09/17 09:16:40;;;;;;;8.75;1.70;;;18.10;98.80;;;;;;4991872;28;20050;-52
2022/09/17 09:19:38;;;;;;;4.22;1.63;;;18.00;99.00;;;;;;4992379;28;20494;-52
2022/09/17 09:22:22;;;;;;;12.32;1.70;;;18.00;99.30;;;;;;4992442;28;20031;-53
2022/09/17 09:25:09;;;;;;;6.38;2.67;;;17.80;98.80;;;;;;4993735;28;20494;-53
2022/09/17 09:28:10;;;;;;;5.25;1.58;;;17.50;99.20;;;;;;5003254;28;20026;-52
2022/09/17 09:31:05;;;;;;;5.13;2.05;;;17.00;99.90;;;;;;4973258;28;20034;-54
2022/09/17 09:33:36;;;;;;;10.30;2.67;;;16.80;99.90;;;;;;4984077;28;20400;-50
2022/09/17 09:36:04;;;;;;;8.85;1.73;;;16.70;99.90;;;;;;4993282;28;20054;-53
2022/09/17 09:38:39;;;;;;;11.95;1.90;;;16.70;99.90;;;;;;5008965;28;20109;-50
2022/09/17 09:41:14;;;;;;;4.03;1.17;;;16.50;99.90;;;;;;4988588;28;20113;-48
2022/09/17 09:43:57;;;;;;;13.48;1.67;;;16.60;99.90;;;;;;5000676;28;20069;-52
2022/09/17 09:46:40;;;;;;;5.75;1.27;;;16.60;99.90;;;;;;5012190;28;20034;-53
2022/09/17 09:49:39;;;;;;;8.68;1.83;;;16.60;99.80;;;;;;4994104;28;20037;-54
2022/09/17 09:52:20;;;;;;;4.07;1.60;;;16.60;99.90;;;;;;4989632;28;20026;-51
2022/09/17 09:55:09;;;;;;;4.47;1.30;;;16.70;99.60;;;;;;5001615;28;20033;-52
2022/09/17 09:57:38;;;;;;;5.00;2.05;;;16.50;99.90;;;;;;5011935;28;20515;-53
2022/09/17 10:00:25;;;;;;;10.45;1.40;;;16.20;99.90;;;;;;4996118;28;20018;-46
2022/09/17 10:03:11;;;;;;;5.03;0.93;;;15.60;99.90;;;;;;4998298;28;20545;-49
2022/09/17 10:05:37;;;;;;;5.05;1.38;;;15.00;99.90;;;;;;4989797;28;20401;-55
2022/09/17 10:08:11;;;;;;;1.80;0.98;;;14.60;99.90;;;;;;4992124;28;20117;-49
2022/09/17 10:11:10;;;;;;;2.05;1.00;;;13.90;99.90;;;;;;4991756;28;20022;-51
2022/09/17 10:13:36;;;;;;;5.07;0.90;;;13.40;99.90;;;;;;4991581;28;20401;-51
2022/09/17 10:16:25;;;;;;;0.82;0.57;;;13.20;99.90;;;;;;4991403;28;20018;-49
2022/09/17 10:19:08;;;;;;;5.40;1.02;;;13.00;99.90;;;;;;4991636;28;20161;-52
2022/09/17 10:21:36;;;;;;;3.90;0.95;;;12.90;99.90;;;;;;4990644;28;20038;-44
2022/09/17 10:24:03;;;;;;;3.25;0.70;;;12.90;99.90;;;;;;4991512;28;20035;-49
2022/09/17 10:26:34;;;;;;;3.15;0.70;;;13.00;99.90;;;;;;4992075;28;20038;-50
2022/09/17 10:29:02;;;;;;;0.93;0.73;;;13.00;99.90;;;;;;5010697;28;20445;-49
2022/09/17 10:31:49;;;;;;;2.60;0.90;;;12.90;99.90;;;;;;4995931;28;20104;-48
2022/09/17 10:34:24;;;;;;;2.75;0.88;;;13.10;99.90;;;;;;4994592;28;20030;-52
2022/09/17 10:36:50;;;;;;;2.35;1.13;;;13.20;99.90;;;;;;4994676;28;20046;-48
2022/09/17 10:39:26;;;;;;;2.30;1.13;;;13.40;99.90;;;;;;4995369;28;20512;-49
2022/09/17 10:42:09;;;;;;;3.15;1.08;;;13.40;99.90;;;;;;4994326;28;20029;-45
2022/09/17 10:44:36;;;;;;;4.38;1.10;;;13.50;99.90;;;;;;4995506;28;20146;-53
2022/09/17 10:47:23;;;;;;;2.33;0.70;;;13.70;99.90;;;;;;4993367;28;20026;-50
2022/09/17 10:50:05;;;;;;;2.60;0.77;;;13.70;99.90;;;;;;5049594;23;20053;-52
2022/09/17 10:52:41;;;;;;;5.03;0.88;;;13.80;99.90;;;;;;5024913;28;20628;-44
2022/09/17 10:55:14;;;;;;;6.53;1.15;;;13.90;99.90;;;;;;5034844;28;20488;-45
2022/09/17 10:57:58;;;;;;;5.03;0.90;;;14.00;99.90;;;;;;5034237;28;20040;-45
2022/09/17 11:00:28;;;;;;;4.00;1.10;;;14.10;99.90;;;;;;5030193;28;20029;-46
2022/09/17 11:03:24;;;;;;;5.75;1.20;;;14.20;99.90;;;;;;5013594;28;20026;-49
2022/09/17 11:06:23;;;;;;;4.85;1.30;;;14.30;99.90;;;;;;5015040;28;20030;-48
2022/09/17 11:09:19;;;;;;;5.18;1.10;;;14.20;99.90;;;;;;5014447;28;20037;-46
2022/09/17 11:12:21;;;;;;;3.23;1.50;;;14.30;99.90;;;;;;5014370;28;20109;-51
2022/09/17 11:15:08;;;;;;;6.88;3.38;;;14.30;99.90;;;;;;5014788;28;20405;-49
2022/09/17 11:17:59;;;;;;;3.53;1.13;;;14.50;99.90;;;;;;5014625;28;20022;-47
2022/09/17 11:20:25;;;;;;;3.65;0.90;;;14.60;99.90;;;;;;5013567;28;20026;-48
2022/09/17 11:23:24;;;;;;;5.57;1.10;;;14.60;99.90;;;;;;5013102;28;20117;-53
2022/09/17 11:25:54;;;;;;;3.45;1.33;;;14.60;99.90;;;;;;5014037;28;20041;-51
2022/09/17 11:28:46;;;;;;;7.57;2.80;;;14.70;99.90;;;;;;5014060;28;20453;-51
2022/09/17 11:31:20;;;;;;;8.50;2.22;;;14.80;99.90;;;;;;5013999;28;20037;-50
2022/09/17 11:33:53;;;;;;;3.25;1.00;;;14.80;99.90;;;;;;5013871;28;20034;-52
2022/09/17 11:36:48;;;;;;;3.35;1.30;;;14.80;99.90;;;;;;5014156;28;20022;-49
2022/09/17 11:39:30;;;;;;;4.70;1.00;;;14.90;99.90;;;;;;5007498;28;20559;-50
2022/09/17 11:41:59;;;;;;;6.78;1.83;;;15.00;99.90;;;;;;5013714;28;20057;-46
2022/09/17 11:44:57;;;;;;;4.95;1.85;;;15.10;99.90;;;;;;5012548;28;20493;-49
2022/09/17 11:47:34;;;;;;;4.03;1.88;;;15.10;99.90;;;;;;5014245;28;20061;-51
2022/09/17 11:50:10;;;;;;;7.93;1.27;;;15.20;99.90;;;;;;5014266;28;20037;-51
2022/09/17 11:53:22;;;;;;;12.43;1.42;;;15.10;99.90;;;;;;5013498;28;20041;-49
2022/09/17 11:55:56;;;;;;;5.43;1.63;;;15.10;99.90;;;;;;5013858;28;20456;-49
2022/09/17 11:58:56;;;;;;;8.38;1.50;;;15.00;99.90;;;;;;5013677;28;20022;-48
2022/09/17 12:01:48;;;;;;;6.15;1.10;;;15.00;99.90;;;;;;5013993;28;20021;-50
2022/09/17 12:04:42;;;;;;;6.13;1.48;;;14.90;99.90;;;;;;5012888;28;20437;-48
2022/09/17 12:07:32;;;;;;;8.63;1.40;;;15.10;99.90;;;;;;5013638;28;20037;-48
2022/09/17 12:10:04;;;;;;;6.22;1.20;;;15.20;99.90;;;;;;5013860;28;20501;-48
2022/09/17 12:12:30;;;;;;;5.22;1.58;;;15.40;99.90;;;;;;5013084;28;20038;-49
2022/09/17 12:15:02;;;;;;;5.50;2.10;;;15.40;99.90;;;;;;5012008;28;20022;-48
2022/09/17 12:17:45;;;;;;;6.63;1.70;;;15.50;99.90;;;;;;5013340;28;20482;-50
2022/09/17 12:20:39;;;;;;;7.22;1.15;;;15.60;99.90;;;;;;5013442;28;20065;-51
2022/09/17 12:23:11;;;;;;;6.85;1.60;;;15.80;99.90;;;;;;5008907;28;20525;-50
2022/09/17 12:25:56;;;;;;;4.82;1.27;;;15.90;99.90;;;;;;5013319;28;20076;-50
2022/09/17 12:28:30;;;;;;;4.40;1.58;;;16.10;99.90;;;;;;5013001;28;20030;-52
2022/09/17 12:31:10;;;;;;;3.20;0.82;;;16.30;98.70;;;;;;5013175;28;20101;-48
2022/09/17 12:33:54;;;;;;;3.05;1.02;;;16.30;98.40;;;;;;5012901;28;20417;-47
2022/09/17 12:36:39;;;;;;;5.90;1.30;;;16.30;98.90;;;;;;5013229;28;20462;-47
2022/09/17 12:39:28;;;;;;;6.25;1.00;;;16.40;99.10;;;;;;5011733;28;20022;-53
2022/09/17 12:42:09;;;;;;;3.13;0.82;;;16.50;98.90;;;;;;5011706;28;20038;-47
2022/09/17 12:45:03;;;;;;;4.20;0.90;;;16.40;98.00;;;;;;5012618;28;20057;-50
2022/09/17 12:47:54;;;;;;;1.75;0.70;;;16.50;97.20;;;;;;5012903;28;20559;-46
2022/09/17 12:50:46;;;;;;;3.17;1.00;;;16.70;95.90;;;;;;4985535;28;20055;-51
2022/09/17 12:53:27;;;;;;;3.50;1.15;;;16.70;95.50;;;;;;5011066;28;20033;-50
2022/09/17 12:56:06;;;;;;;6.85;1.08;;;16.70;96.30;;;;;;5012718;28;20049;-48
2022/09/17 12:58:42;;;;;;;0.85;0.70;;;16.60;96.50;;;;;;5012700;28;20079;-49
2022/09/17 13:01:21;;;;;;;4.85;1.10;;;16.60;97.10;;;;;;5012815;28;20379;-55
2022/09/17 13:04:01;;;;;;;3.83;0.98;;;16.60;96.60;;;;;;5012057;28;20485;-50
2022/09/17 13:06:54;;;;;;;2.38;1.23;;;16.60;96.60;;;;;;5012340;28;20025;-48
2022/09/17 13:09:42;;;;;;;3.00;1.00;;;16.40;97.30;;;;;;5012388;28;20026;-48
2022/09/17 13:12:26;;;;;;;2.55;0.95;;;16.20;97.70;;;;;;5012158;28;20026;-50
2022/09/17 13:15:20;;;;;;;5.70;1.08;;;16.00;98.30;;;;;;5011044;28;20028;-52
2022/09/17 13:18:09;;;;;;;2.75;1.02;;;15.90;98.20;;;;;;5010908;28;20032;-48
2022/09/17 13:21:02;;;;;;;4.30;1.45;;;15.90;98.20;;;;;;5011304;28;20393;-51